sensor_id;sensor_type;location;lat;lon;timestamp;temperature;humidity
17172;DHT22;8701;50.150;8.756;2023-02-24T00:00:08;9.80;99.90
17172;DHT22;8701;50.150;8.756;2023-02-24T00:04:33;9.80;99.90
17172;DHT22;8701;50.150;8.756;2023-02-24T00:08:35;9.70;99.90
17172;DHT22;8701;50.150;8.756;2023-02-24T00:12:37;9.70;99.90
17172;DHT22;8701;50.150;8.756;2023-02-24T00:16:42;9.70;99.90
17172;DHT22;8701;50.150;8.756;2023-02-24T00:20:45;9.70;99.90
17172;DHT22;8701;50.150;8.756;2023-02-24T00:24:47;9.70;99.90
17172;DHT22;8701;50.150;8.756;2023-02-24T00:28:49;9.60;99.90
17172;DHT22;8701;50.150;8.756;2023-02-24T00:32:53;9.70;99.90
17172;DHT22;8701;50.150;8.756;2023-02-24T00:37:01;9.70;99.90
17172;DHT22;8701;50.150;8.756;2023-02-24T00:41:11;9.70;99.90
17172;DHT22;8701;50.150;8.756;2023-02-24T00:45:14;9.70;99.90
17172;DHT22;8701;50.150;8.756;2023-02-24T00:49:18;9.80;99.90
17172;DHT22;8701;50.150;8.756;2023-02-24T00:53:24;9.70;99.90
17172;DHT22;8701;50.150;8.756;2023-02-24T00:57:29;9.70;99.90
17172;DHT22;8701;50.150;8.756;2023-02-24T01:01:33;9.60;99.90
17172;DHT22;8701;50.150;8.756;2023-02-24T01:05:37;9.60;99.90
17172;DHT22;8701;50.150;8.756;2023-02-24T01:09:40;9.60;99.90
17172;DHT22;8701;50.150;8.756;2023-02-24T01:13:44;9.60;99.90
17172;DHT22;8701;50.150;8.756;2023-02-24T01:17:46;9.60;99.90
17172;DHT22;8701;50.150;8.756;2023-02-24T01:21:50;9.50;99.90
17172;DHT22;8701;50.150;8.756;2023-02-24T01:25:55;9.50;99.90
17172;DHT22;8701;50.150;8.756;2023-02-24T01:30:01;9.50;99.90
17172;DHT22;8701;50.150;8.756;2023-02-24T01:34:05;9.50;99.90
17172;DHT22;8701;50.150;8.756;2023-02-24T01:38:08;9.50;99.90
17172;DHT22;8701;50.150;8.756;2023-02-24T01:42:12;9.40;99.90
17172;DHT22;8701;50.150;8.756;2023-02-24T01:46:19;9.30;99.90
17172;DHT22;8701;50.150;8.756;2023-02-24T01:50:23;9.30;99.90
17172;DHT22;8701;50.150;8.756;2023-02-24T01:54:31;9.30;99.90
17172;DHT22;8701;50.150;8.756;2023-02-24T01:58:34;9.30;99.90
17172;DHT22;8701;50.150;8.756;2023-02-24T02:02:38;9.30;99.90
17172;DHT22;8701;50.150;8.756;2023-02-24T02:06:44;9.30;99.90
17172;DHT22;8701;50.150;8.756;2023-02-24T02:10:49;9.30;99.90
17172;DHT22;8701;50.150;8.756;2023-02-24T02:14:58;9.30;99.90
17172;DHT22;8701;50.150;8.756;2023-02-24T02:19:15;9.30;99.90
17172;DHT22;8701;50.150;8.756;2023-02-24T02:23:41;9.20;99.90
17172;DHT22;8701;50.150;8.756;2023-02-24T02:28:10;9.20;99.90
17172;DHT22;8701;50.150;8.756;2023-02-24T02:32:39;9.20;99.90
17172;DHT22;8701;50.150;8.756;2023-02-24T02:36:57;9.30;99.90
17172;DHT22;8701;50.150;8.756;2023-02-24T02:41:08;9.30;99.90
17172;DHT22;8701;50.150;8.756;2023-02-24T02:45:18;9.30;99.90
17172;DHT22;8701;50.150;8.756;2023-02-24T02:49:28;9.30;99.90
17172;DHT22;8701;50.150;8.756;2023-02-24T02:53:37;9.20;99.90
17172;DHT22;8701;50.150;8.756;2023-02-24T02:57:45;9.20;99.90
17172;DHT22;8701;50.150;8.756;2023-02-24T03:01:50;9.20;99.90
17172;DHT22;8701;50.150;8.756;2023-02-24T03:05:57;9.20;99.90
17172;DHT22;8701;50.150;8.756;2023-02-24T03:10:08;9.20;99.90
17172;DHT22;8701;50.150;8.756;2023-02-24T03:14:22;9.10;99.90
17172;DHT22;8701;50.150;8.756;2023-02-24T03:18:29;9.20;99.90
17172;DHT22;8701;50.150;8.756;2023-02-24T03:22:35;9.20;99.90
17172;DHT22;8701;50.150;8.756;2023-02-24T03:26:46;9.20;99.90
17172;DHT22;8701;50.150;8.756;2023-02-24T03:30:57;9.20;99.90
17172;DHT22;8701;50.150;8.756;2023-02-24T03:35:10;9.20;99.90
17172;DHT22;8701;50.150;8.756;2023-02-24T03:39:14;9.20;99.90
17172;DHT22;8701;50.150;8.756;2023-02-24T03:43:30;9.10;99.90
17172;DHT22;8701;50.150;8.756;2023-02-24T03:47:34;9.10;99.90
17172;DHT22;8701;50.150;8.756;2023-02-24T03:51:38;9.10;99.90
17172;DHT22;8701;50.150;8.756;2023-02-24T03:55:54;9.10;99.90
17172;DHT22;8701;50.150;8.756;2023-02-24T04:00:07;9.20;99.90
17172;DHT22;8701;50.150;8.756;2023-02-24T04:04:31;9.20;99.90
17172;DHT22;8701;50.150;8.756;2023-02-24T04:08:49;9.10;99.90
17172;DHT22;8701;50.150;8.756;2023-02-24T04:12:57;9.10;99.90
17172;DHT22;8701;50.150;8.756;2023-02-24T04:17:07;9.10;99.90
17172;DHT22;8701;50.150;8.756;2023-02-24T04:21:16;9.10;99.90
17172;DHT22;8701;50.150;8.756;2023-02-24T04:25:22;9.10;99.90
17172;DHT22;8701;50.150;8.756;2023-02-24T04:29:28;9.10;99.90
17172;DHT22;8701;50.150;8.756;2023-02-24T04:33:37;9.00;99.90
17172;DHT22;8701;50.150;8.756;2023-02-24T04:37:39;9.00;99.90
17172;DHT22;8701;50.150;8.756;2023-02-24T04:41:44;9.00;99.90
17172;DHT22;8701;50.150;8.756;2023-02-24T04:45:49;9.00;99.90
17172;DHT22;8701;50.150;8.756;2023-02-24T04:49:53;9.00;99.90
17172;DHT22;8701;50.150;8.756;2023-02-24T04:53:57;9.00;99.90
17172;DHT22;8701;50.150;8.756;2023-02-24T04:57:59;9.00;99.90
17172;DHT22;8701;50.150;8.756;2023-02-24T05:02:02;9.00;99.90
17172;DHT22;8701;50.150;8.756;2023-02-24T05:06:06;8.90;99.90
17172;DHT22;8701;50.150;8.756;2023-02-24T05:10:10;8.90;99.90
17172;DHT22;8701;50.150;8.756;2023-02-24T05:14:13;8.90;99.90
17172;DHT22;8701;50.150;8.756;2023-02-24T05:18:16;8.90;99.90
17172;DHT22;8701;50.150;8.756;2023-02-24T05:22:21;8.90;99.90
17172;DHT22;8701;50.150;8.756;2023-02-24T05:26:23;8.90;99.90
17172;DHT22;8701;50.150;8.756;2023-02-24T05:30:26;8.80;99.90
17172;DHT22;8701;50.150;8.756;2023-02-24T05:34:29;8.80;99.90
17172;DHT22;8701;50.150;8.756;2023-02-24T05:38:33;8.80;99.90
17172;DHT22;8701;50.150;8.756;2023-02-24T05:42:38;8.80;99.90
17172;DHT22;8701;50.150;8.756;2023-02-24T05:46:45;8.80;99.90
17172;DHT22;8701;50.150;8.756;2023-02-24T05:50:50;8.80;99.90
17172;DHT22;8701;50.150;8.756;2023-02-24T05:54:56;8.70;99.90
17172;DHT22;8701;50.150;8.756;2023-02-24T05:59:03;8.70;99.90
17172;DHT22;8701;50.150;8.756;2023-02-24T06:03:07;8.70;99.90
17172;DHT22;8701;50.150;8.756;2023-02-24T06:07:11;8.70;99.90
17172;DHT22;8701;50.150;8.756;2023-02-24T06:11:16;8.60;99.90
17172;DHT22;8701;50.150;8.756;2023-02-24T06:15:18;8.60;99.90
17172;DHT22;8701;50.150;8.756;2023-02-24T06:19:20;8.50;99.90
17172;DHT22;8701;50.150;8.756;2023-02-24T06:23:23;8.50;99.90
17172;DHT22;8701;50.150;8.756;2023-02-24T06:27:28;8.60;99.90
17172;DHT22;8701;50.150;8.756;2023-02-24T06:31:30;8.60;99.90
17172;DHT22;8701;50.150;8.756;2023-02-24T06:35:33;8.60;99.90
17172;DHT22;8701;50.150;8.756;2023-02-24T06:39:35;8.60;99.90
17172;DHT22;8701;50.150;8.756;2023-02-24T06:43:40;8.70;99.90
17172;DHT22;8701;50.150;8.756;2023-02-24T06:47:44;8.60;99.90
17172;DHT22;8701;50.150;8.756;2023-02-24T06:51:48;8.60;99.90
17172;DHT22;8701;50.150;8.756;2023-02-24T06:55:52;8.60;99.90
17172;DHT22;8701;50.150;8.756;2023-02-24T06:59:56;8.60;99.90
17172;DHT22;8701;50.150;8.756;2023-02-24T07:03:59;8.40;99.90
17172;DHT22;8701;50.150;8.756;2023-02-24T07:08:19;8.60;99.90
17172;DHT22;8701;50.150;8.756;2023-02-24T07:12:22;8.60;99.90
17172;DHT22;8701;50.150;8.756;2023-02-24T07:16:26;8.60;99.90
17172;DHT22;8701;50.150;8.756;2023-02-24T07:20:29;8.70;99.90
17172;DHT22;8701;50.150;8.756;2023-02-24T07:24:37;8.70;99.90
17172;DHT22;8701;50.150;8.756;2023-02-24T07:28:46;8.70;99.90
17172;DHT22;8701;50.150;8.756;2023-02-24T07:32:50;8.70;99.90
17172;DHT22;8701;50.150;8.756;2023-02-24T07:36:55;8.70;99.90
17172;DHT22;8701;50.150;8.756;2023-02-24T07:40:57;8.70;99.90
17172;DHT22;8701;50.150;8.756;2023-02-24T07:45:00;8.70;99.90
17172;DHT22;8701;50.150;8.756;2023-02-24T07:49:06;8.80;99.90
17172;DHT22;8701;50.150;8.756;2023-02-24T07:53:09;8.80;99.90
17172;DHT22;8701;50.150;8.756;2023-02-24T07:57:12;8.90;99.90
17172;DHT22;8701;50.150;8.756;2023-02-24T08:01:14;8.90;99.90
17172;DHT22;8701;50.150;8.756;2023-02-24T08:05:24;8.90;99.90
17172;DHT22;8701;50.150;8.756;2023-02-24T08:09:28;9.00;99.90
17172;DHT22;8701;50.150;8.756;2023-02-24T08:14:08;8.90;99.90
17172;DHT22;8701;50.150;8.756;2023-02-24T08:18:13;9.00;99.90
17172;DHT22;8701;50.150;8.756;2023-02-24T08:22:21;9.10;99.90
17172;DHT22;8701;50.150;8.756;2023-02-24T08:26:25;9.00;99.90
17172;DHT22;8701;50.150;8.756;2023-02-24T08:30:32;9.00;99.90
17172;DHT22;8701;50.150;8.756;2023-02-24T08:34:39;9.10;99.90
17172;DHT22;8701;50.150;8.756;2023-02-24T08:38:49;9.10;99.90
17172;DHT22;8701;50.150;8.756;2023-02-24T08:43:02;9.20;99.90
17172;DHT22;8701;50.150;8.756;2023-02-24T08:47:16;9.20;99.90
17172;DHT22;8701;50.150;8.756;2023-02-24T08:51:23;9.40;99.90
17172;DHT22;8701;50.150;8.756;2023-02-24T08:55:30;9.50;99.90
17172;DHT22;8701;50.150;8.756;2023-02-24T08:59:44;9.70;99.90
17172;DHT22;8701;50.150;8.756;2023-02-24T09:04:06;9.70;99.90
17172;DHT22;8701;50.150;8.756;2023-02-24T09:35:07;9.70;99.90
17172;DHT22;8701;50.150;8.756;2023-02-24T09:39:12;9.50;99.90
17172;DHT22;8701;50.150;8.756;2023-02-24T09:43:22;9.70;99.90
17172;DHT22;8701;50.150;8.756;2023-02-24T09:47:32;9.80;99.90
17172;DHT22;8701;50.150;8.756;2023-02-24T09:51:44;10.10;99.90
17172;DHT22;8701;50.150;8.756;2023-02-24T09:55:57;10.30;99.90
17172;DHT22;8701;50.150;8.756;2023-02-24T10:00:18;10.30;99.90
17172;DHT22;8701;50.150;8.756;2023-02-24T10:06:13;10.40;99.90
17172;DHT22;8701;50.150;8.756;2023-02-24T10:10:19;10.30;99.90
17172;DHT22;8701;50.150;8.756;2023-02-24T10:14:36;10.30;99.90
17172;DHT22;8701;50.150;8.756;2023-02-24T10:18:45;10.40;99.90
17172;DHT22;8701;50.150;8.756;2023-02-24T10:23:02;10.80;99.90
17172;DHT22;8701;50.150;8.756;2023-02-24T10:27:21;11.30;99.90
17172;DHT22;8701;50.150;8.756;2023-02-24T10:31:29;11.50;99.90
17172;DHT22;8701;50.150;8.756;2023-02-24T10:35:35;11.50;99.90
17172;DHT22;8701;50.150;8.756;2023-02-24T10:39:41;11.70;99.90
17172;DHT22;8701;50.150;8.756;2023-02-24T10:43:54;12.00;99.90
17172;DHT22;8701;50.150;8.756;2023-02-24T10:47:58;12.20;99.90
17172;DHT22;8701;50.150;8.756;2023-02-24T10:52:03;12.00;99.90
17172;DHT22;8701;50.150;8.756;2023-02-24T10:56:13;11.70;99.90
17172;DHT22;8701;50.150;8.756;2023-02-24T11:00:29;11.40;99.90
17172;DHT22;8701;50.150;8.756;2023-02-24T11:04:55;11.40;99.90
17172;DHT22;8701;50.150;8.756;2023-02-24T11:09:25;11.60;99.90
17172;DHT22;8701;50.150;8.756;2023-02-24T11:14:02;11.90;99.90
17172;DHT22;8701;50.150;8.756;2023-02-24T11:18:32;12.00;99.90
17172;DHT22;8701;50.150;8.756;2023-02-24T11:22:37;11.80;99.90
17172;DHT22;8701;50.150;8.756;2023-02-24T11:26:40;11.50;99.90
17172;DHT22;8701;50.150;8.756;2023-02-24T11:31:12;11.60;99.90
17172;DHT22;8701;50.150;8.756;2023-02-24T11:35:24;12.00;99.90
17172;DHT22;8701;50.150;8.756;2023-02-24T11:39:43;11.90;99.90
17172;DHT22;8701;50.150;8.756;2023-02-24T11:43:56;11.90;99.90
17172;DHT22;8701;50.150;8.756;2023-02-24T11:48:04;11.70;99.90
17172;DHT22;8701;50.150;8.756;2023-02-24T11:52:17;11.70;99.90
17172;DHT22;8701;50.150;8.756;2023-02-24T11:56:23;12.00;99.90
17172;DHT22;8701;50.150;8.756;2023-02-24T12:00:30;11.90;99.90
17172;DHT22;8701;50.150;8.756;2023-02-24T12:04:39;12.10;99.90
17172;DHT22;8701;50.150;8.756;2023-02-24T12:08:49;11.80;99.90
17172;DHT22;8701;50.150;8.756;2023-02-24T12:13:00;11.90;99.90
17172;DHT22;8701;50.150;8.756;2023-02-24T12:17:12;12.20;99.90
17172;DHT22;8701;50.150;8.756;2023-02-24T12:21:21;12.20;99.90
17172;DHT22;8701;50.150;8.756;2023-02-24T12:31:09;12.00;99.90
17172;DHT22;8701;50.150;8.756;2023-02-24T12:35:18;11.70;99.90
17172;DHT22;8701;50.150;8.756;2023-02-24T12:39:37;11.50;99.90
17172;DHT22;8701;50.150;8.756;2023-02-24T12:43:46;11.40;99.90
17172;DHT22;8701;50.150;8.756;2023-02-24T12:48:05;11.30;99.90
17172;DHT22;8701;50.150;8.756;2023-02-24T12:52:22;11.30;99.90
17172;DHT22;8701;50.150;8.756;2023-02-24T12:56:32;11.20;99.90
17172;DHT22;8701;50.150;8.756;2023-02-24T13:00:51;11.10;99.90
17172;DHT22;8701;50.150;8.756;2023-02-24T13:05:02;11.00;99.90
17172;DHT22;8701;50.150;8.756;2023-02-24T13:11:42;11.00;99.90
17172;DHT22;8701;50.150;8.756;2023-02-24T13:14:39;11.00;99.90
17172;DHT22;8701;50.150;8.756;2023-02-24T13:18:43;10.90;99.90
17172;DHT22;8701;50.150;8.756;2023-02-24T13:22:47;11.00;99.90
17172;DHT22;8701;50.150;8.756;2023-02-24T13:26:50;10.80;99.90
17172;DHT22;8701;50.150;8.756;2023-02-24T13:30:57;10.80;99.90
17172;DHT22;8701;50.150;8.756;2023-02-24T13:35:02;10.90;99.90
17172;DHT22;8701;50.150;8.756;2023-02-24T13:39:18;10.90;99.90
17172;DHT22;8701;50.150;8.756;2023-02-24T13:43:26;10.80;99.90
17172;DHT22;8701;50.150;8.756;2023-02-24T13:47:49;10.80;99.90
17172;DHT22;8701;50.150;8.756;2023-02-24T13:52:09;10.70;99.90
17172;DHT22;8701;50.150;8.756;2023-02-24T13:56:29;10.60;99.90
17172;DHT22;8701;50.150;8.756;2023-02-24T14:00:44;10.50;99.90
17172;DHT22;8701;50.150;8.756;2023-02-24T14:04:55;10.50;99.90
17172;DHT22;8701;50.150;8.756;2023-02-24T14:09:00;10.30;99.90
17172;DHT22;8701;50.150;8.756;2023-02-24T14:13:13;10.50;99.90
17172;DHT22;8701;50.150;8.756;2023-02-24T14:17:23;10.40;99.90
17172;DHT22;8701;50.150;8.756;2023-02-24T14:21:30;10.30;99.90
17172;DHT22;8701;50.150;8.756;2023-02-24T14:25:35;10.30;99.90
17172;DHT22;8701;50.150;8.756;2023-02-24T14:29:41;10.20;99.90
17172;DHT22;8701;50.150;8.756;2023-02-24T14:33:44;10.20;99.90
17172;DHT22;8701;50.150;8.756;2023-02-24T14:37:51;10.20;99.90
17172;DHT22;8701;50.150;8.756;2023-02-24T14:42:08;10.10;99.90
17172;DHT22;8701;50.150;8.756;2023-02-24T14:46:12;10.10;99.90
17172;DHT22;8701;50.150;8.756;2023-02-24T14:50:18;10.10;99.90
17172;DHT22;8701;50.150;8.756;2023-02-24T14:54:29;10.10;99.90
17172;DHT22;8701;50.150;8.756;2023-02-24T14:58:40;10.00;99.90
17172;DHT22;8701;50.150;8.756;2023-02-24T15:02:49;10.10;99.90
17172;DHT22;8701;50.150;8.756;2023-02-24T15:06:52;9.90;99.90
17172;DHT22;8701;50.150;8.756;2023-02-24T15:10:55;9.90;99.90
17172;DHT22;8701;50.150;8.756;2023-02-24T15:15:00;9.90;99.90
17172;DHT22;8701;50.150;8.756;2023-02-24T15:19:23;9.90;99.90
17172;DHT22;8701;50.150;8.756;2023-02-24T15:23:30;9.70;99.90
17172;DHT22;8701;50.150;8.756;2023-02-24T15:27:33;9.50;99.90
17172;DHT22;8701;50.150;8.756;2023-02-24T15:31:36;9.70;99.90
17172;DHT22;8701;50.150;8.756;2023-02-24T15:35:46;9.60;99.90
17172;DHT22;8701;50.150;8.756;2023-02-24T15:39:56;9.60;99.90
17172;DHT22;8701;50.150;8.756;2023-02-24T15:44:01;9.50;99.90
17172;DHT22;8701;50.150;8.756;2023-02-24T15:48:18;9.40;99.90
17172;DHT22;8701;50.150;8.756;2023-02-24T15:52:24;9.40;99.90
17172;DHT22;8701;50.150;8.756;2023-02-24T15:56:28;9.40;99.90
17172;DHT22;8701;50.150;8.756;2023-02-24T16:00:33;9.40;99.90
17172;DHT22;8701;50.150;8.756;2023-02-24T16:04:39;9.40;99.90
17172;DHT22;8701;50.150;8.756;2023-02-24T16:08:43;9.10;99.90
17172;DHT22;8701;50.150;8.756;2023-02-24T16:12:49;9.30;99.90
17172;DHT22;8701;50.150;8.756;2023-02-24T16:16:52;9.20;99.90
17172;DHT22;8701;50.150;8.756;2023-02-24T16:20:54;9.20;99.90
17172;DHT22;8701;50.150;8.756;2023-02-24T16:24:59;9.20;99.90
17172;DHT22;8701;50.150;8.756;2023-02-24T16:29:02;9.10;99.90
17172;DHT22;8701;50.150;8.756;2023-02-24T16:33:04;9.10;99.90
17172;DHT22;8701;50.150;8.756;2023-02-24T16:37:14;9.00;99.90
17172;DHT22;8701;50.150;8.756;2023-02-24T16:41:19;8.90;99.90
17172;DHT22;8701;50.150;8.756;2023-02-24T16:45:25;8.60;99.90
17172;DHT22;8701;50.150;8.756;2023-02-24T16:49:28;8.50;99.90
17172;DHT22;8701;50.150;8.756;2023-02-24T16:53:41;8.40;99.90
17172;DHT22;8701;50.150;8.756;2023-02-24T16:57:49;8.40;99.90
17172;DHT22;8701;50.150;8.756;2023-02-24T17:01:57;8.30;99.90
17172;DHT22;8701;50.150;8.756;2023-02-24T17:06:02;8.20;99.90
17172;DHT22;8701;50.150;8.756;2023-02-24T17:10:05;8.10;99.90
17172;DHT22;8701;50.150;8.756;2023-02-24T17:14:16;8.10;99.90
17172;DHT22;8701;50.150;8.756;2023-02-24T17:18:18;7.90;99.90
17172;DHT22;8701;50.150;8.756;2023-02-24T17:22:20;7.80;99.90
17172;DHT22;8701;50.150;8.756;2023-02-24T17:26:23;7.70;99.90
17172;DHT22;8701;50.150;8.756;2023-02-24T17:30:30;7.60;99.90
17172;DHT22;8701;50.150;8.756;2023-02-24T17:34:33;7.50;99.90
17172;DHT22;8701;50.150;8.756;2023-02-24T17:38:35;7.40;99.90
17172;DHT22;8701;50.150;8.756;2023-02-24T17:42:38;7.40;99.90
17172;DHT22;8701;50.150;8.756;2023-02-24T17:46:42;7.40;99.90
17172;DHT22;8701;50.150;8.756;2023-02-24T17:50:47;7.40;99.90
17172;DHT22;8701;50.150;8.756;2023-02-24T17:54:52;7.50;99.90
17172;DHT22;8701;50.150;8.756;2023-02-24T17:58:55;7.40;99.90
17172;DHT22;8701;50.150;8.756;2023-02-24T18:03:00;7.50;99.90
17172;DHT22;8701;50.150;8.756;2023-02-24T18:07:03;7.30;99.90
17172;DHT22;8701;50.150;8.756;2023-02-24T18:11:06;7.30;99.90
17172;DHT22;8701;50.150;8.756;2023-02-24T18:15:14;7.30;99.90
17172;DHT22;8701;50.150;8.756;2023-02-24T18:19:17;7.20;99.90
17172;DHT22;8701;50.150;8.756;2023-02-24T18:23:20;7.20;99.90
17172;DHT22;8701;50.150;8.756;2023-02-24T18:27:22;7.20;99.90
17172;DHT22;8701;50.150;8.756;2023-02-24T18:31:27;7.10;99.90
17172;DHT22;8701;50.150;8.756;2023-02-24T18:35:30;7.00;99.90
17172;DHT22;8701;50.150;8.756;2023-02-24T18:39:33;7.00;99.90
17172;DHT22;8701;50.150;8.756;2023-02-24T18:43:35;7.00;99.90
17172;DHT22;8701;50.150;8.756;2023-02-24T18:47:46;6.90;99.90
17172;DHT22;8701;50.150;8.756;2023-02-24T18:51:50;6.90;99.90
17172;DHT22;8701;50.150;8.756;2023-02-24T18:55:57;6.80;99.90
17172;DHT22;8701;50.150;8.756;2023-02-24T19:00:01;6.90;99.90
17172;DHT22;8701;50.150;8.756;2023-02-24T19:04:05;7.00;99.90
17172;DHT22;8701;50.150;8.756;2023-02-24T19:08:09;6.90;99.90
17172;DHT22;8701;50.150;8.756;2023-02-24T19:12:11;6.90;99.90
17172;DHT22;8701;50.150;8.756;2023-02-24T19:16:15;6.80;99.90
17172;DHT22;8701;50.150;8.756;2023-02-24T19:20:18;6.80;99.90
17172;DHT22;8701;50.150;8.756;2023-02-24T19:24:22;6.80;99.90
17172;DHT22;8701;50.150;8.756;2023-02-24T19:28:24;6.80;99.90
17172;DHT22;8701;50.150;8.756;2023-02-24T19:32:27;6.80;99.90
17172;DHT22;8701;50.150;8.756;2023-02-24T19:36:30;6.70;99.90
17172;DHT22;8701;50.150;8.756;2023-02-24T19:40:34;6.60;99.90
17172;DHT22;8701;50.150;8.756;2023-02-24T19:44:37;6.60;99.90
17172;DHT22;8701;50.150;8.756;2023-02-24T19:48:39;6.60;99.90
17172;DHT22;8701;50.150;8.756;2023-02-24T19:52:42;6.60;99.90
17172;DHT22;8701;50.150;8.756;2023-02-24T19:56:46;6.60;99.90
17172;DHT22;8701;50.150;8.756;2023-02-24T20:00:48;6.60;99.90
17172;DHT22;8701;50.150;8.756;2023-02-24T20:04:50;6.50;99.90
17172;DHT22;8701;50.150;8.756;2023-02-24T20:08:53;6.50;99.90
17172;DHT22;8701;50.150;8.756;2023-02-24T20:12:57;6.50;99.90
17172;DHT22;8701;50.150;8.756;2023-02-24T20:16:59;6.40;99.90
17172;DHT22;8701;50.150;8.756;2023-02-24T20:21:02;6.40;99.90
17172;DHT22;8701;50.150;8.756;2023-02-24T20:25:06;6.20;99.90
17172;DHT22;8701;50.150;8.756;2023-02-24T20:29:10;6.30;99.90
17172;DHT22;8701;50.150;8.756;2023-02-24T20:33:12;6.30;99.90
17172;DHT22;8701;50.150;8.756;2023-02-24T20:37:15;6.30;99.90
17172;DHT22;8701;50.150;8.756;2023-02-24T20:41:18;6.30;99.90
17172;DHT22;8701;50.150;8.756;2023-02-24T20:45:23;6.30;99.90
17172;DHT22;8701;50.150;8.756;2023-02-24T20:49:26;6.30;99.90
17172;DHT22;8701;50.150;8.756;2023-02-24T20:53:28;6.30;99.90
17172;DHT22;8701;50.150;8.756;2023-02-24T20:57:31;6.30;99.90
17172;DHT22;8701;50.150;8.756;2023-02-24T21:01:36;6.40;99.90
17172;DHT22;8701;50.150;8.756;2023-02-24T21:05:39;6.20;99.90
17172;DHT22;8701;50.150;8.756;2023-02-24T21:09:41;6.30;99.90
17172;DHT22;8701;50.150;8.756;2023-02-24T21:13:45;6.40;99.90
17172;DHT22;8701;50.150;8.756;2023-02-24T21:17:49;6.50;99.90
17172;DHT22;8701;50.150;8.756;2023-02-24T21:21:51;6.60;99.90
17172;DHT22;8701;50.150;8.756;2023-02-24T21:25:54;6.60;99.90
17172;DHT22;8701;50.150;8.756;2023-02-24T21:29:56;6.70;99.90
17172;DHT22;8701;50.150;8.756;2023-02-24T21:34:00;6.60;99.90
17172;DHT22;8701;50.150;8.756;2023-02-24T21:38:02;6.40;99.90
17172;DHT22;8701;50.150;8.756;2023-02-24T21:42:05;6.50;99.90
17172;DHT22;8701;50.150;8.756;2023-02-24T21:46:09;6.40;99.90
17172;DHT22;8701;50.150;8.756;2023-02-24T21:50:24;6.40;99.90
17172;DHT22;8701;50.150;8.756;2023-02-24T21:54:47;6.40;99.90
17172;DHT22;8701;50.150;8.756;2023-02-24T21:59:07;6.40;99.90
17172;DHT22;8701;50.150;8.756;2023-02-24T22:03:11;6.30;99.90
17172;DHT22;8701;50.150;8.756;2023-02-24T22:07:14;6.40;99.90
17172;DHT22;8701;50.150;8.756;2023-02-24T22:11:17;6.30;99.90
17172;DHT22;8701;50.150;8.756;2023-02-24T22:15:20;6.30;99.90
17172;DHT22;8701;50.150;8.756;2023-02-24T22:19:23;6.50;99.90
17172;DHT22;8701;50.150;8.756;2023-02-24T22:23:26;6.40;99.90
17172;DHT22;8701;50.150;8.756;2023-02-24T22:27:29;6.30;99.90
17172;DHT22;8701;50.150;8.756;2023-02-24T22:31:33;6.20;99.90
17172;DHT22;8701;50.150;8.756;2023-02-24T22:35:36;6.20;99.90
17172;DHT22;8701;50.150;8.756;2023-02-24T22:39:40;6.10;99.90
17172;DHT22;8701;50.150;8.756;2023-02-24T22:43:43;6.00;99.90
17172;DHT22;8701;50.150;8.756;2023-02-24T22:47:45;5.90;99.90
17172;DHT22;8701;50.150;8.756;2023-02-24T22:51:48;5.90;99.90
17172;DHT22;8701;50.150;8.756;2023-02-24T22:55:52;5.90;99.90
17172;DHT22;8701;50.150;8.756;2023-02-24T22:59:54;5.90;99.90
17172;DHT22;8701;50.150;8.756;2023-02-24T23:03:58;6.00;99.90
17172;DHT22;8701;50.150;8.756;2023-02-24T23:08:05;6.00;99.90
17172;DHT22;8701;50.150;8.756;2023-02-24T23:12:08;6.20;99.90
17172;DHT22;8701;50.150;8.756;2023-02-24T23:16:17;6.10;99.90
17172;DHT22;8701;50.150;8.756;2023-02-24T23:20:19;5.90;99.90
17172;DHT22;8701;50.150;8.756;2023-02-24T23:24:22;5.90;99.90
17172;DHT22;8701;50.150;8.756;2023-02-24T23:28:26;6.00;99.90
17172;DHT22;8701;50.150;8.756;2023-02-24T23:32:29;5.90;99.90
17172;DHT22;8701;50.150;8.756;2023-02-24T23:36:44;5.60;99.90
17172;DHT22;8701;50.150;8.756;2023-02-24T23:40:47;5.60;99.90
17172;DHT22;8701;50.150;8.756;2023-02-24T23:44:51;5.60;99.90
17172;DHT22;8701;50.150;8.756;2023-02-24T23:48:54;5.60;99.90
17172;DHT22;8701;50.150;8.756;2023-02-24T23:52:58;5.50;99.90
17172;DHT22;8701;50.150;8.756;2023-02-24T23:57:01;5.50;99.90
